createdAt,value
2023-01-29T00:02:46.708Z,99947.63
2023-01-29T00:07:54.404Z,99954.44
2023-01-29T00:12:59.480Z,99943.06
2023-01-29T00:18:04.536Z,99940.19
2023-01-29T00:23:12.057Z,99939.16
2023-01-29T00:28:18.103Z,99934.19
2023-01-29T00:33:23.109Z,99932.50
2023-01-29T00:38:30.618Z,99924.56
2023-01-29T00:43:47.971Z,99921.69
2023-01-29T00:48:52.844Z,99923.47
2023-01-29T00:54:00.669Z,99906.25
2023-01-29T00:59:06.168Z,99916.09
2023-01-29T01:04:13.729Z,99916.84
2023-01-29T01:09:36.620Z,99931.16
2023-01-29T01:14:43.319Z,99928.81
2023-01-29T01:19:48.183Z,99919.94
2023-01-29T01:24:55.714Z,99925.97
2023-01-29T01:30:00.804Z,99905.44
2023-01-29T01:35:05.783Z,99914.66
2023-01-29T01:40:18.771Z,99906.97
2023-01-29T01:45:29.211Z,99904.28
2023-01-29T01:50:40.007Z,99892.13
2023-01-29T01:55:51.953Z,99900.56
2023-01-29T02:00:57.597Z,99899.78
2023-01-29T02:06:16.113Z,99900.59
2023-01-29T02:11:24.194Z,99884.69
2023-01-29T02:16:29.192Z,99878.03
2023-01-29T02:21:51.726Z,99878.03
2023-01-29T02:27:11.862Z,99881.69
2023-01-29T02:32:28.117Z,99884.22
2023-01-29T02:37:39.169Z,99887.41
2023-01-29T02:42:55.237Z,99873.63
2023-01-29T02:48:05.030Z,99885.38
2023-01-29T02:53:16.396Z,99881.78
2023-01-29T02:58:28.007Z,99879.56
2023-01-29T03:03:39.735Z,99880.19
2023-01-29T03:08:52.440Z,99892.63
2023-01-29T03:14:02.721Z,99904.19
2023-01-29T03:19:16.398Z,99879.84
2023-01-29T03:24:38.639Z,99883.13
2023-01-29T03:29:57.859Z,99879.88
2023-01-29T03:35:21.073Z,99881.75
2023-01-29T03:40:26.320Z,99891.63
2023-01-29T03:45:36.735Z,99895.44
2023-01-29T03:50:55.145Z,99878.38
2023-01-29T03:56:07.327Z,99878.22
2023-01-29T04:01:17.835Z,99895.59
2023-01-29T04:06:30.167Z,99898.44
2023-01-29T04:11:46.082Z,99876.75
2023-01-29T04:16:55.296Z,99870.34
2023-01-29T04:22:16.726Z,99851.53
2023-01-29T04:27:30.449Z,99851.53
2023-01-29T04:32:49.914Z,99840.09
2023-01-29T04:38:07.882Z,99835.63
2023-01-29T04:43:19.196Z,99842.75
2023-01-29T04:48:28.104Z,99827.25
2023-01-29T04:53:44.261Z,99830.09
2023-01-29T04:58:54.504Z,99808.34
2023-01-29T05:04:01.276Z,99796.53
2023-01-29T05:09:10.505Z,99802.75
2023-01-29T05:14:18.276Z,99795.94
2023-01-29T05:19:23.266Z,99794.84
2023-01-29T05:24:30.905Z,99800.81
2023-01-29T05:29:36.022Z,99776.16
2023-01-29T05:34:41.050Z,99774.47
2023-01-29T05:39:48.738Z,99779.56
2023-01-29T05:44:53.625Z,99775.06
2023-01-29T05:49:58.808Z,99784.16
2023-01-29T05:55:06.635Z,99779.09
2023-01-29T06:00:13.367Z,99774.25
2023-01-29T06:05:18.609Z,99785.56
2023-01-29T06:10:26.175Z,99790.22
2023-01-29T06:15:31.572Z,99782.59
2023-01-29T06:20:36.559Z,99797.50
2023-01-29T06:25:44.157Z,99808.44
2023-01-29T06:30:49.173Z,99838.44
2023-01-29T06:35:59.010Z,99835.03
2023-01-29T06:41:12.228Z,99834.81
2023-01-29T06:46:17.298Z,99848.13
2023-01-29T06:51:23.072Z,99848.41
2023-01-29T06:56:30.577Z,99866.50
2023-01-29T07:01:36.957Z,99879.34
2023-01-29T07:06:42.809Z,99893.38
2023-01-29T07:11:50.508Z,99889.91
2023-01-29T07:16:55.480Z,99892.44
2023-01-29T07:22:02.632Z,99896.91
2023-01-29T07:27:10.353Z,99898.63
2023-01-29T07:32:16.130Z,99884.22
2023-01-29T07:37:21.180Z,99877.28
2023-01-29T07:42:28.793Z,99861.59
2023-01-29T07:47:33.862Z,99857.97
2023-01-29T07:52:39.099Z,99871.13
2023-01-29T07:57:48.374Z,99857.56
2023-01-29T08:02:53.521Z,99854.31
2023-01-29T08:08:06.601Z,99839.50
2023-01-29T08:13:14.494Z,99826.28
2023-01-29T08:18:19.726Z,99825.06
2023-01-29T08:23:24.711Z,99811.81
2023-01-29T08:28:32.330Z,99815.03
2023-01-29T08:33:39.352Z,99821.25
2023-01-29T08:38:45.453Z,99808.19
2023-01-29T08:43:53.409Z,99813.00
2023-01-29T08:48:58.886Z,99832.72
2023-01-29T08:54:03.858Z,99839.16
2023-01-29T08:59:13.009Z,99841.94
2023-01-29T09:04:18.006Z,99812.44
2023-01-29T09:09:23.048Z,99792.91
2023-01-29T09:14:30.683Z,99784.06
2023-01-29T09:19:35.656Z,99803.16
2023-01-29T09:24:43.200Z,99806.22
2023-01-29T09:29:50.786Z,99787.28
2023-01-29T09:34:56.104Z,99791.25
2023-01-29T09:40:01.091Z,99803.78
2023-01-29T09:45:16.166Z,99792.44
2023-01-29T09:50:41.096Z,99781.94
2023-01-29T09:55:52.726Z,99773.81
2023-01-29T10:01:09.344Z,99747.28
2023-01-29T10:06:28.334Z,99739.06
2023-01-29T10:11:42.281Z,99748.78
2023-01-29T10:17:02.584Z,99741.53
2023-01-29T10:22:22.889Z,99745.53
2023-01-29T10:27:35.157Z,99748.41
2023-01-29T10:32:46.978Z,99750.84
2023-01-29T10:37:55.988Z,99762.63
2023-01-29T10:43:06.969Z,99753.66
2023-01-29T10:48:44.052Z,99741.06
2023-01-29T10:54:01.504Z,99729.84
2023-01-29T10:59:11.999Z,99711.03
2023-01-29T11:04:19.892Z,99694.13
2023-01-29T11:09:34.568Z,99688.41
2023-01-29T11:14:47.845Z,99683.66
2023-01-29T11:19:57.844Z,99678.38
2023-01-29T11:25:19.241Z,99658.22
2023-01-29T11:30:27.332Z,99653.28
2023-01-29T11:35:36.557Z,99654.69
2023-01-29T11:40:43.465Z,99641.97
2023-01-29T11:45:49.878Z,99649.44
2023-01-29T11:51:00.815Z,99636.94
2023-01-29T11:56:25.400Z,99632.47
2023-01-29T12:01:36.230Z,99632.53
2023-01-29T12:06:48.931Z,99616.69
2023-01-29T12:11:54.432Z,99610.97
2023-01-29T12:17:10.546Z,99610.22
2023-01-29T12:22:23.435Z,99592.56
2023-01-29T12:27:36.736Z,99574.72
2023-01-29T12:32:48.550Z,99560.53
2023-01-29T12:38:05.398Z,99571.72
2023-01-29T12:43:19.409Z,99574.09
2023-01-29T12:48:29.021Z,99573.13
2023-01-29T12:53:43.970Z,99557.31
2023-01-29T12:58:53.649Z,99549.63
2023-01-29T13:04:02.527Z,99549.38
2023-01-29T13:09:20.283Z,99555.66
2023-01-29T13:14:29.311Z,99524.50
2023-01-29T13:19:39.415Z,99533.16
2023-01-29T13:25:02.387Z,99532.59
2023-01-29T13:30:10.513Z,99515.56
2023-01-29T13:35:20.130Z,99521.84
2023-01-29T13:40:30.803Z,99507.03
2023-01-29T13:45:39.617Z,99513.25
2023-01-29T13:50:46.609Z,99526.28
2023-01-29T13:55:54.217Z,99515.19
2023-01-29T14:01:02.976Z,99509.88
2023-01-29T14:06:08.808Z,99508.84
2023-01-29T14:11:38.762Z,99506.69
2023-01-29T14:16:45.059Z,99503.13
2023-01-29T14:21:53.796Z,99509.69
2023-01-29T14:27:05.700Z,99498.75
2023-01-29T14:32:22.401Z,99491.81
2023-01-29T14:37:35.019Z,99498.88
2023-01-29T14:42:52.965Z,99499.03
2023-01-29T14:48:06.353Z,99507.13
2023-01-29T14:53:23.194Z,99503.78
2023-01-29T14:58:45.385Z,99504.06
2023-01-29T15:03:56.745Z,99496.56
2023-01-29T15:09:14.068Z,99493.50
2023-01-29T15:14:35.064Z,99504.50
2023-01-29T15:19:45.482Z,99497.38
2023-01-29T15:25:07.483Z,99490.34
2023-01-29T15:30:21.899Z,99483.53
2023-01-29T15:35:32.449Z,99485.44
2023-01-29T15:40:38.608Z,99481.50
2023-01-29T15:45:48.640Z,99471.19
2023-01-29T15:51:00.159Z,99463.25
2023-01-29T15:56:11.812Z,99463.91
2023-01-29T16:01:20.268Z,99462.09
2023-01-29T16:06:27.386Z,99455.47
2023-01-29T16:11:32.707Z,99455.22
2023-01-29T16:16:40.450Z,99455.47
2023-01-29T16:21:51.068Z,99440.91
2023-01-29T16:27:09.618Z,99438.59
2023-01-29T16:32:18.446Z,99436.63
2023-01-29T16:37:31.182Z,99428.53
2023-01-29T16:42:39.175Z,99418.94
2023-01-29T16:47:48.485Z,99420.75
2023-01-29T16:53:01.537Z,99415.59
2023-01-29T16:58:12.879Z,99405.72
2023-01-29T17:03:22.663Z,99396.09
2023-01-29T17:08:31.748Z,99396.38
2023-01-29T17:13:42.834Z,99401.56
2023-01-29T17:18:53.073Z,99405.78
2023-01-29T17:24:06.636Z,99400.09
2023-01-29T17:29:17.011Z,99396.69
2023-01-29T17:34:24.763Z,99401.94
2023-01-29T17:39:30.081Z,99398.94
2023-01-29T17:44:35.113Z,99388.63
2023-01-29T17:49:42.723Z,99398.44
2023-01-29T17:54:50.242Z,99391.16
2023-01-29T17:59:57.363Z,99389.69
2023-01-29T18:05:05.457Z,99387.66
2023-01-29T18:10:16.874Z,99380.38
2023-01-29T18:15:23.339Z,99378.97
2023-01-29T18:20:32.085Z,99376.84
2023-01-29T18:25:38.166Z,99362.03
2023-01-29T18:30:45.692Z,99362.06
2023-01-29T18:35:58.301Z,99358.03
2023-01-29T18:41:10.676Z,99340.03
2023-01-29T18:46:16.005Z,99339.97
2023-01-29T18:51:25.081Z,99339.41
2023-01-29T18:56:30.251Z,99316.25
2023-01-29T19:01:39.558Z,99315.63
2023-01-29T19:06:47.989Z,99296.94
2023-01-29T19:11:55.388Z,99283.44
2023-01-29T19:17:05.124Z,99289.53
2023-01-29T19:22:13.285Z,99290.13
2023-01-29T19:27:20.268Z,99273.25
2023-01-29T19:32:25.865Z,99268.09
2023-01-29T19:37:34.412Z,99272.03
2023-01-29T19:42:41.584Z,99260.91
2023-01-29T19:47:48.132Z,99265.28
2023-01-29T19:52:59.482Z,99253.16
2023-01-29T19:58:06.908Z,99249.00
2023-01-29T20:03:15.730Z,99248.34
2023-01-29T20:08:25.069Z,99247.41
2023-01-29T20:13:31.192Z,99249.16
2023-01-29T20:18:39.988Z,99262.88
2023-01-29T20:23:53.142Z,99253.13
2023-01-29T20:28:58.821Z,99242.59
2023-01-29T20:34:05.704Z,99228.88
2023-01-29T20:39:14.465Z,99229.59
2023-01-29T20:44:20.165Z,99234.69
2023-01-29T20:49:31.174Z,99221.91
2023-01-29T20:54:40.466Z,99225.44
2023-01-29T20:59:46.255Z,99215.59
2023-01-29T21:04:56.488Z,99210.19
2023-01-29T21:10:05.019Z,99197.69
2023-01-29T21:15:12.239Z,99183.38
2023-01-29T21:20:20.350Z,99169.44
2023-01-29T21:25:28.373Z,99157.03
2023-01-29T21:30:36.653Z,99158.84
2023-01-29T21:35:41.861Z,99152.50
2023-01-29T21:40:49.565Z,99138.75
2023-01-29T21:45:59.182Z,99143.09
2023-01-29T21:51:07.229Z,99138.75
2023-01-29T21:56:19.855Z,99119.00
2023-01-29T22:01:38.198Z,99123.06
2023-01-29T22:06:43.990Z,99096.97
2023-01-29T22:11:51.570Z,99083.16
2023-01-29T22:16:56.540Z,99075.72
2023-01-29T22:22:01.606Z,99063.16
2023-01-29T22:27:09.650Z,99043.91
2023-01-29T22:32:14.685Z,99022.69
2023-01-29T22:37:19.654Z,99014.94
2023-01-29T22:42:27.957Z,99008.75
2023-01-29T22:47:35.207Z,98993.59
2023-01-29T22:52:42.870Z,98984.53
2023-01-29T22:57:51.666Z,98974.22
2023-01-29T23:02:56.691Z,98973.34
2023-01-29T23:08:01.758Z,98974.63
2023-01-29T23:13:09.342Z,98952.59
2023-01-29T23:18:14.387Z,98946.00
2023-01-29T23:23:19.367Z,98946.66
2023-01-29T23:28:27.578Z,98938.19
2023-01-29T23:33:32.507Z,98931.38
2023-01-29T23:38:39.103Z,98917.38
2023-01-29T23:43:46.724Z,98899.38
2023-01-29T23:48:51.694Z,98879.31
2023-01-29T23:53:57.026Z,98871.97
2023-01-29T23:59:04.616Z,98861.16
